createdAt,value
2022-12-26T00:01:49.087Z,10.30
2022-12-26T00:04:51.956Z,10.40
2022-12-26T00:06:50.216Z,10.40
2022-12-26T00:09:18.767Z,10.40
2022-12-26T00:11:47.727Z,10.40
2022-12-26T00:14:17.068Z,10.40
2022-12-26T00:16:47.254Z,10.40
2022-12-26T00:19:15.886Z,10.40
2022-12-26T00:21:45.926Z,10.40
2022-12-26T00:24:14.545Z,10.40
2022-12-26T00:26:42.996Z,10.30
2022-12-26T00:29:11.671Z,10.40
2022-12-26T00:31:40.218Z,10.40
2022-12-26T00:36:37.043Z,10.50
2022-12-26T00:41:34.372Z,10.40
2022-12-26T00:44:03.499Z,10.30
2022-12-26T00:46:33.777Z,10.40
2022-12-26T00:49:02.517Z,10.30
2022-12-26T00:51:31.916Z,10.40
2022-12-26T00:54:02.084Z,10.40
2022-12-26T00:56:31.338Z,10.40
2022-12-26T00:58:59.911Z,10.40
2022-12-26T01:01:32.392Z,10.40
2022-12-26T01:04:01.316Z,10.40
2022-12-26T01:06:29.871Z,10.30
2022-12-26T01:08:59.496Z,10.40
2022-12-26T01:11:40.702Z,10.40
2022-12-26T01:14:12.450Z,10.40
2022-12-26T01:16:42.863Z,10.40
2022-12-26T01:19:13.090Z,10.40
2022-12-26T01:21:42.936Z,10.40
2022-12-26T01:24:13.840Z,10.40
2022-12-26T01:26:42.437Z,10.40
2022-12-26T01:29:10.922Z,10.40
2022-12-26T01:36:38.577Z,11.40
2022-12-26T01:39:07.127Z,10.40
2022-12-26T01:44:07.088Z,10.40
2022-12-26T01:46:46.206Z,10.40
2022-12-26T02:07:06.421Z,10.10
2022-12-26T02:09:35.789Z,10.10
2022-12-26T02:12:34.528Z,10.10
2022-12-26T02:17:06.861Z,10.10
2022-12-26T02:19:50.577Z,10.20
2022-12-26T02:22:27.859Z,10.20
2022-12-26T02:25:14.190Z,10.20
2022-12-26T02:28:02.211Z,10.20
2022-12-26T02:30:50.155Z,10.30
2022-12-26T02:36:17.439Z,10.20
2022-12-26T02:38:57.948Z,10.30
2022-12-26T02:41:36.924Z,10.30
2022-12-26T02:44:29.234Z,10.30
2022-12-26T02:47:15.719Z,10.30
2022-12-26T02:50:13.872Z,10.30
2022-12-26T02:53:05.943Z,10.30
2022-12-26T02:55:55.037Z,10.30
2022-12-26T02:58:59.435Z,10.40
2022-12-26T03:01:48.978Z,10.40
2022-12-26T03:04:38.069Z,10.40
2022-12-26T03:07:27.226Z,10.40
2022-12-26T03:10:15.639Z,10.40
2022-12-26T03:15:36.202Z,10.00
2022-12-26T03:23:10.068Z,10.40
2022-12-26T03:26:08.398Z,10.40
2022-12-26T03:28:37.327Z,10.40
2022-12-26T03:31:12.083Z,10.40
2022-12-26T03:34:02.047Z,10.40
2022-12-26T03:36:36.729Z,10.40
2022-12-26T03:39:19.944Z,10.40
2022-12-26T03:42:18.016Z,10.40
2022-12-26T03:45:16.372Z,10.40
2022-12-26T03:48:11.773Z,10.40
2022-12-26T03:51:00.955Z,10.40
2022-12-26T03:54:04.831Z,10.40
2022-12-26T03:57:02.918Z,10.30
2022-12-26T03:59:52.146Z,10.30
2022-12-26T04:02:40.468Z,10.30
2022-12-26T04:05:31.833Z,10.30
2022-12-26T04:08:21.053Z,10.30
2022-12-26T04:11:10.369Z,10.30
2022-12-26T04:14:08.783Z,10.30
2022-12-26T04:17:00.977Z,10.30
2022-12-26T04:19:32.573Z,10.40
2022-12-26T04:22:38.254Z,10.30
2022-12-26T04:25:50.563Z,10.30
2022-12-26T04:28:15.690Z,10.30
2022-12-26T04:31:04.882Z,10.30
2022-12-26T04:33:54.234Z,10.20
2022-12-26T04:36:49.539Z,10.20
2022-12-26T04:39:39.079Z,10.20
2022-12-26T04:42:26.607Z,10.20
2022-12-26T04:44:57.655Z,10.10
2022-12-26T04:47:26.724Z,10.10
2022-12-26T04:50:13.495Z,10.00
2022-12-26T04:52:56.852Z,10.00
2022-12-26T04:55:26.744Z,9.90
2022-12-26T04:57:55.909Z,9.90
2022-12-26T05:00:25.549Z,9.90
2022-12-26T05:03:18.189Z,9.80
2022-12-26T05:06:03.412Z,9.80
2022-12-26T05:09:02.098Z,9.70
2022-12-26T05:11:32.917Z,9.70
2022-12-26T05:14:02.229Z,9.70
2022-12-26T05:16:48.759Z,9.70
2022-12-26T05:19:36.753Z,9.60
2022-12-26T05:22:24.142Z,9.70
2022-12-26T05:25:11.429Z,9.60
2022-12-26T05:28:00.886Z,9.70
2022-12-26T05:30:31.522Z,9.70
2022-12-26T05:33:17.852Z,9.70
2022-12-26T05:35:46.472Z,9.70
2022-12-26T05:38:15.177Z,9.60
2022-12-26T05:40:43.740Z,9.60
2022-12-26T05:43:12.280Z,9.60
2022-12-26T05:45:41.137Z,9.60
2022-12-26T05:48:10.070Z,9.60
2022-12-26T05:50:39.870Z,9.60
2022-12-26T05:53:10.341Z,9.50
2022-12-26T05:55:39.516Z,9.50
2022-12-26T05:58:14.953Z,9.40
2022-12-26T06:00:46.807Z,9.40
2022-12-26T06:03:15.465Z,9.40
2022-12-26T06:05:44.175Z,9.40
2022-12-26T06:08:12.697Z,9.40
2022-12-26T06:10:41.183Z,9.40
2022-12-26T06:13:10.669Z,9.40
2022-12-26T06:15:39.876Z,9.40
2022-12-26T06:18:08.531Z,9.40
2022-12-26T06:20:42.541Z,9.40
2022-12-26T06:23:11.074Z,9.40
2022-12-26T06:25:39.882Z,9.40
2022-12-26T06:28:08.556Z,9.40
2022-12-26T06:30:37.086Z,9.40
2022-12-26T06:33:05.821Z,9.30
2022-12-26T06:35:35.928Z,9.30
2022-12-26T06:38:04.443Z,9.40
2022-12-26T06:40:34.477Z,9.40
2022-12-26T06:43:04.792Z,9.40
2022-12-26T06:45:33.425Z,9.40
2022-12-26T06:48:02.216Z,9.40
2022-12-26T06:50:30.807Z,9.40
2022-12-26T06:52:59.351Z,9.40
2022-12-26T06:55:28.141Z,9.40
2022-12-26T06:57:56.714Z,9.40
2022-12-26T07:00:25.293Z,9.40
2022-12-26T07:02:53.937Z,9.40
2022-12-26T07:05:22.496Z,9.40
2022-12-26T07:07:53.924Z,9.40
2022-12-26T07:10:22.537Z,9.40
2022-12-26T07:12:51.131Z,9.40
2022-12-26T07:15:19.761Z,9.40
2022-12-26T07:17:48.250Z,9.40
2022-12-26T07:20:16.993Z,9.40
2022-12-26T07:22:45.522Z,9.50
2022-12-26T07:25:15.395Z,9.50
2022-12-26T07:27:44.028Z,9.50
2022-12-26T07:33:18.937Z,9.50
2022-12-26T07:35:47.582Z,9.50
2022-12-26T07:38:16.323Z,9.50
2022-12-26T07:40:45.313Z,9.60
2022-12-26T07:43:13.916Z,9.60
2022-12-26T07:45:45.872Z,9.60
2022-12-26T07:48:12.618Z,9.60
2022-12-26T07:50:41.243Z,9.60
2022-12-26T07:53:09.780Z,9.60
2022-12-26T07:55:38.705Z,9.60
2022-12-26T07:58:07.272Z,9.70
2022-12-26T08:00:36.167Z,9.70
2022-12-26T08:03:07.632Z,9.70
2022-12-26T08:05:35.141Z,9.70
2022-12-26T08:08:03.759Z,9.70
2022-12-26T08:10:32.343Z,9.80
2022-12-26T08:13:00.952Z,9.80
2022-12-26T08:15:29.524Z,9.70
2022-12-26T08:17:58.089Z,9.70
2022-12-26T08:20:26.895Z,9.70
2022-12-26T08:25:23.933Z,9.80
2022-12-26T08:27:52.508Z,9.80
2022-12-26T08:30:21.041Z,9.90
2022-12-26T08:32:51.348Z,9.90
2022-12-26T08:35:19.860Z,9.80
2022-12-26T08:37:48.696Z,9.90
2022-12-26T08:40:26.751Z,9.90
2022-12-26T08:43:11.615Z,9.80
2022-12-26T08:45:17.720Z,9.90
2022-12-26T08:47:46.247Z,10.00
2022-12-26T08:50:16.023Z,9.90
2022-12-26T08:52:45.023Z,10.00
2022-12-26T08:55:13.638Z,10.00
2022-12-26T08:57:42.187Z,10.00
2022-12-26T09:00:11.731Z,9.90
2022-12-26T09:02:40.330Z,9.90
2022-12-26T09:05:10.048Z,10.00
2022-12-26T09:07:38.711Z,10.00
2022-12-26T09:10:07.607Z,10.00
2022-12-26T09:12:36.156Z,10.00
2022-12-26T09:15:04.989Z,10.00
2022-12-26T09:17:33.558Z,10.00
2022-12-26T09:20:02.152Z,10.00
2022-12-26T09:22:48.236Z,9.90
2022-12-26T09:25:20.506Z,9.90
2022-12-26T09:27:55.584Z,9.90
2022-12-26T09:30:22.049Z,9.90
2022-12-26T09:32:50.814Z,9.90
2022-12-26T09:35:19.605Z,9.90
2022-12-26T09:37:48.097Z,9.80
2022-12-26T09:40:26.220Z,9.70
2022-12-26T09:42:57.908Z,9.70
2022-12-26T09:45:44.046Z,9.80
2022-12-26T09:48:30.526Z,9.90
2022-12-26T09:50:59.142Z,10.10
2022-12-26T09:53:36.893Z,10.00
2022-12-26T09:56:10.882Z,10.20
2022-12-26T09:58:55.105Z,10.10
2022-12-26T10:01:31.129Z,10.10
2022-12-26T10:04:01.007Z,9.90
2022-12-26T10:06:32.741Z,9.80
2022-12-26T10:09:07.407Z,10.10
2022-12-26T10:12:07.796Z,10.20
2022-12-26T10:14:57.504Z,10.30
2022-12-26T10:17:45.421Z,10.20
2022-12-26T10:20:24.184Z,10.10
2022-12-26T10:23:24.144Z,10.10
2022-12-26T10:25:58.531Z,10.10
2022-12-26T10:28:47.676Z,10.30
2022-12-26T10:31:34.427Z,10.30
2022-12-26T10:34:17.822Z,10.40
2022-12-26T10:37:04.676Z,10.50
2022-12-26T10:39:48.542Z,10.50
2022-12-26T10:42:27.347Z,10.40
2022-12-26T10:44:55.955Z,10.30
2022-12-26T10:47:42.621Z,10.20
2022-12-26T10:50:27.893Z,10.30
2022-12-26T10:52:58.891Z,10.40
2022-12-26T10:55:34.339Z,10.30
2022-12-26T10:58:11.781Z,10.30
2022-12-26T11:00:40.317Z,10.30
2022-12-26T11:03:17.199Z,10.30
2022-12-26T11:06:06.847Z,10.20
2022-12-26T11:08:24.951Z,10.40
2022-12-26T11:11:20.247Z,10.40
2022-12-26T11:13:51.972Z,10.20
2022-12-26T11:16:26.752Z,10.20
2022-12-26T11:18:55.811Z,10.20
2022-12-26T11:21:26.755Z,10.20
2022-12-26T11:24:15.608Z,10.00
2022-12-26T11:26:44.181Z,10.00
2022-12-26T11:29:15.295Z,10.50
2022-12-26T11:31:58.506Z,11.00
2022-12-26T11:34:34.421Z,11.30
2022-12-26T11:37:04.197Z,11.20
2022-12-26T11:39:35.628Z,11.10
2022-12-26T11:42:17.172Z,10.90
2022-12-26T11:44:49.530Z,11.10
2022-12-26T11:47:22.734Z,11.00
2022-12-26T11:50:03.557Z,11.20
2022-12-26T12:36:38.353Z,10.00
2022-12-26T12:39:10.058Z,11.20
2022-12-26T12:41:56.067Z,10.90
2022-12-26T12:44:36.969Z,10.50
2022-12-26T12:47:30.801Z,10.10
2022-12-26T12:50:11.213Z,9.80
2022-12-26T12:52:51.592Z,9.80
2022-12-26T12:55:29.188Z,10.40
2022-12-26T13:00:30.869Z,12.60
2022-12-26T13:03:23.399Z,13.30
2022-12-26T13:06:12.849Z,14.30
2022-12-26T13:08:56.193Z,13.70
2022-12-26T13:11:39.128Z,12.50
2022-12-26T13:14:19.635Z,11.50
2022-12-26T13:16:51.242Z,11.30
2022-12-26T13:19:22.866Z,11.20
2022-12-26T13:24:39.161Z,9.00
2022-12-26T13:27:16.496Z,9.00
2022-12-26T15:35:49.404Z,6.80
2022-12-26T15:38:23.653Z,6.70
2022-12-26T15:41:16.430Z,6.60
2022-12-26T15:44:02.967Z,6.60
2022-12-26T15:46:39.737Z,6.60
2022-12-26T15:49:11.430Z,6.50
2022-12-26T15:54:48.283Z,6.50
2022-12-26T15:57:46.708Z,6.60
2022-12-26T16:00:33.349Z,6.50
2022-12-26T16:06:03.468Z,6.40
2022-12-26T16:16:31.446Z,6.30
2022-12-26T16:21:48.026Z,6.30
2022-12-26T16:24:19.413Z,6.40
